Time;durP1;ratioP1;P1;durP2;ratioP2;P2;SDS_P1;SDS_P2;PMS_P1;PMS_P2;Temp;Humidity;BMP_temperature;BMP_pressure;BME280_temperature;BME280_humidity;BME280_pressure;Samples;Min_cycle;Max_cycle;Signal;HPM_P1;HPM_P2
2024/02/20 00:01:47;;;;;;;;;;;;;;;;;;5094121;28;19908;-74
2024/02/20 00:04:17;;;;;;;;;;;;;;;;;;5093734;28;20004;-74
2024/02/20 00:06:43;;;;;;;;;;;;;;;;;;5094073;28;19915;-74
2024/02/20 00:09:09;;;;;;;;;;;;;;;;;;5093740;28;19908;-73
2024/02/20 00:11:35;;;;;;;;;;;;;;;;;;5094058;28;19908;-74
2024/02/20 00:14:01;;;;;;;;;;;;;;;;;;5093838;28;19920;-74
2024/02/20 00:16:27;;;;;;;;;;;;;;;;;;5093551;28;20291;-73
2024/02/20 00:18:53;;;;;;;;;;;;;;;;;;5093953;28;19908;-74
2024/02/20 00:21:19;;;;;;;;;;;;;;;;;;5093915;28;19908;-73
2024/02/20 00:23:45;;;;;;;;;;;;;;;;;;5093685;28;19953;-73
2024/02/20 00:26:10;;;;;;;;;;;;;;;;;;5093905;28;19908;-73
2024/02/20 00:28:40;;;;;;;;;;;;;;;;;;5094082;28;19912;-73
2024/02/20 00:31:06;;;;;;;;;;;;;;;;;;5092246;28;19908;-73
2024/02/20 00:33:32;;;;;;;;;;;;;;;;;;5094250;28;19913;-73
2024/02/20 00:35:58;;;;;;;;;;;;;;;;;;5095885;28;20391;-73
2024/02/20 00:38:24;;;;;;;;;;;;;;;;;;5096143;28;20356;-74
2024/02/20 00:40:50;;;;;;;;;;;;;;;;;;5097865;28;20398;-73
2024/02/20 00:43:15;;;;;;;;;;;;;;;;;;5097762;28;20260;-73
2024/02/20 00:45:41;;;;;;;;;;;;;;;;;;5097255;28;19908;-74
2024/02/20 00:48:07;;;;;;;;;;;;;;;;;;5097681;28;19912;-74
2024/02/20 00:50:34;;;;;;;;;;;;;;;;;;5097659;28;19908;-73
2024/02/20 00:53:00;;;;;;;;;;;;;;;;;;5097386;28;20433;-74
2024/02/20 00:55:26;;;;;;;;;;;;;;;;;;5097480;28;19916;-73
2024/02/20 00:57:57;;;;;;;;;;;;;;;;;;5097573;28;19959;-73
2024/02/20 01:00:23;;;;;;;;;;;;;;;;;;5097402;28;19908;-73
2024/02/20 01:02:49;;;;;;;;;;;;;;;;;;5097565;28;20287;-73
2024/02/20 01:05:16;;;;;;;;;;;;;;;;;;5095788;28;19915;-73
2024/02/20 01:07:42;;;;;;;;;;;;;;;;;;5097779;28;19908;-73
2024/02/20 01:10:08;;;;;;;;;;;;;;;;;;5095981;28;19915;-73
2024/02/20 01:12:34;;;;;;;;;;;;;;;;;;5097045;28;19908;-74
2024/02/20 01:15:00;;;;;;;;;;;;;;;;;;5097044;28;19989;-73
2024/02/20 01:17:26;;;;;;;;;;;;;;;;;;5096141;28;19908;-73
2024/02/20 01:19:52;;;;;;;;;;;;;;;;;;5096883;28;19915;-73
2024/02/20 01:22:18;;;;;;;;;;;;;;;;;;5095746;28;19914;-73
2024/02/20 01:24:44;;;;;;;;;;;;;;;;;;5096965;28;19916;-73
2024/02/20 01:27:10;;;;;;;;;;;;;;;;;;5096687;28;20364;-74
2024/02/20 01:29:36;;;;;;;;;;;;;;;;;;5096929;28;19908;-73
2024/02/20 01:32:02;;;;;;;;;;;;;;;;;;5095553;28;19915;-74
2024/02/20 01:34:28;;;;;;;;;;;;;;;;;;5095010;28;19916;-74
2024/02/20 01:36:55;;;;;;;;;;;;;;;;;;5096779;28;19915;-74
2024/02/20 01:39:21;;;;;;;;;;;;;;;;;;5096695;28;19908;-73
2024/02/20 01:41:47;;;;;;;;;;;;;;;;;;5096291;28;20438;-73
2024/02/20 01:44:13;;;;;;;;;;;;;;;;;;5095364;28;20269;-74
2024/02/20 01:46:41;;;;;;;;;;;;;;;;;;5096071;28;19908;-73
2024/02/20 01:49:07;;;;;;;;;;;;;;;;;;5096129;28;19965;-73
2024/02/20 01:51:33;;;;;;;;;;;;;;;;;;5095264;28;20310;-73
2024/02/20 01:53:59;;;;;;;;;;;;;;;;;;5095053;28;19920;-73
2024/02/20 01:56:25;;;;;;;;;;;;;;;;;;5096053;28;20363;-73
2024/02/20 01:58:51;;;;;;;;;;;;;;;;;;5096338;28;19976;-73
2024/02/20 02:01:18;;;;;;;;;;;;;;;;;;5096335;28;19912;-75
2024/02/20 02:03:45;;;;;;;;;;;;;;;;;;5095830;28;20286;-74
2024/02/20 02:06:11;;;;;;;;;;;;;;;;;;5096270;28;19915;-74
2024/02/20 02:08:37;;;;;;;;;;;;;;;;;;5095795;28;20402;-74
2024/02/20 02:11:04;;;;;;;;;;;;;;;;;;5096138;28;19919;-74
2024/02/20 02:13:30;;;;;;;;;;;;;;;;;;5095762;28;19920;-74
2024/02/20 02:15:56;;;;;;;;;;;;;;;;;;5095684;28;19914;-74
2024/02/20 02:18:21;;;;;;;;;;;;;;;;;;5095949;28;19909;-74
2024/02/20 02:20:48;;;;;;;;;;;;;;;;;;5095964;28;19909;-73
2024/02/20 02:23:14;;;;;;;;;;;;;;;;;;5095905;28;19908;-74
2024/02/20 02:25:40;;;;;;;;;;;;;;;;;;5094517;28;19916;-74
2024/02/20 02:28:06;;;;;;;;;;;;;;;;;;5095866;28;19908;-74
2024/02/20 02:30:32;;;;;;;;;;;;;;;;;;5094229;28;19908;-74
2024/02/20 02:32:58;;;;;;;;;;;;;;;;;;5095708;28;19915;-75
2024/02/20 02:35:24;;;;;;;;;;;;;;;;;;5095530;28;19961;-75
2024/02/20 02:37:50;;;;;;;;;;;;;;;;;;5095200;28;19931;-75
2024/02/20 02:40:16;;;;;;;;;;;;;;;;;;5096209;28;19958;-74
2024/02/20 02:42:42;;;;;;;;;;;;;;;;;;5095502;28;20318;-74
2024/02/20 02:45:08;;;;;;;;;;;;;;;;;;5093740;28;20268;-75
2024/02/20 02:47:34;;;;;;;;;;;;;;;;;;5095931;28;20283;-75
2024/02/20 02:50:00;;;;;;;;;;;;;;;;;;5095415;28;20422;-74
2024/02/20 02:52:26;;;;;;;;;;;;;;;;;;5094932;28;19931;-75
2024/02/20 02:54:52;;;;;;;;;;;;;;;;;;5095192;28;19922;-74
2024/02/20 02:57:18;;;;;;;;;;;;;;;;;;5094815;28;19909;-75
2024/02/20 02:59:44;;;;;;;;;;;;;;;;;;5094324;28;19915;-75
2024/02/20 03:02:12;;;;;;;;;;;;;;;;;;5095284;28;20356;-75
2024/02/20 03:04:38;;;;;;;;;;;;;;;;;;5095819;28;19915;-73
2024/02/20 03:07:04;;;;;;;;;;;;;;;;;;5095137;28;19912;-75
2024/02/20 03:09:30;;;;;;;;;;;;;;;;;;5095479;28;19908;-75
2024/02/20 03:11:58;;;;;;;;;;;;;;;;;;5095125;28;20292;-75
2024/02/20 03:14:24;;;;;;;;;;;;;;;;;;5095092;28;19920;-74
2024/02/20 03:16:50;;;;;;;;;;;;;;;;;;5095344;28;20283;-74
2024/02/20 03:19:16;;;;;;;;;;;;;;;;;;5093637;28;19995;-74
2024/02/20 03:21:42;;;;;;;;;;;;;;;;;;5094953;28;19908;-74
2024/02/20 03:24:09;;;;;;;;;;;;;;;;;;5094980;28;20292;-74
2024/02/20 03:26:35;;;;;;;;;;;;;;;;;;5094436;28;19908;-75
2024/02/20 03:29:01;;;;;;;;;;;;;;;;;;5094829;28;19915;-75
2024/02/20 03:31:27;;;;;;;;;;;;;;;;;;5094795;28;19912;-74
2024/02/20 03:33:53;;;;;;;;;;;;;;;;;;5094332;28;20257;-74
2024/02/20 03:36:19;;;;;;;;;;;;;;;;;;5094598;28;19908;-74
2024/02/20 03:38:45;;;;;;;;;;;;;;;;;;5094581;28;19908;-74
2024/02/20 03:41:11;;;;;;;;;;;;;;;;;;5092853;28;19908;-75
2024/02/20 03:43:37;;;;;;;;;;;;;;;;;;5095099;28;20003;-75
2024/02/20 03:46:04;;;;;;;;;;;;;;;;;;5094319;28;19915;-74
2024/02/20 03:48:30;;;;;;;;;;;;;;;;;;5092715;28;19984;-74
2024/02/20 03:50:56;;;;;;;;;;;;;;;;;;5094421;28;19912;-74
2024/02/20 03:53:23;;;;;;;;;;;;;;;;;;5094319;28;19908;-75
2024/02/20 03:55:49;;;;;;;;;;;;;;;;;;5094033;28;19908;-74
2024/02/20 03:58:15;;;;;;;;;;;;;;;;;;5093062;28;20279;-75
2024/02/20 04:00:40;;;;;;;;;;;;;;;;;;5094183;28;19948;-74
2024/02/20 04:03:06;;;;;;;;;;;;;;;;;;5093708;28;19915;-75
2024/02/20 04:05:33;;;;;;;;;;;;;;;;;;5092879;28;19915;-74
2024/02/20 04:07:59;;;;;;;;;;;;;;;;;;5094632;28;19954;-75
2024/02/20 04:10:25;;;;;;;;;;;;;;;;;;5093479;28;19912;-75
2024/02/20 04:12:51;;;;;;;;;;;;;;;;;;5093786;28;20007;-74
2024/02/20 04:15:17;;;;;;;;;;;;;;;;;;5093852;28;19920;-75
2024/02/20 04:17:43;;;;;;;;;;;;;;;;;;5094098;28;19908;-74
2024/02/20 04:20:09;;;;;;;;;;;;;;;;;;5093968;28;19915;-74
2024/02/20 04:22:37;;;;;;;;;;;;;;;;;;5093595;28;19916;-74
2024/02/20 04:25:03;;;;;;;;;;;;;;;;;;5093964;28;19908;-74
2024/02/20 04:27:29;;;;;;;;;;;;;;;;;;5092677;28;19914;-74
2024/02/20 04:29:55;;;;;;;;;;;;;;;;;;5093557;28;19908;-74
2024/02/20 04:32:21;;;;;;;;;;;;;;;;;;5093887;28;19991;-74
2024/02/20 04:34:47;;;;;;;;;;;;;;;;;;5092487;28;19924;-74
2024/02/20 04:37:14;;;;;;;;;;;;;;;;;;5093409;28;19916;-75
2024/02/20 04:39:40;;;;;;;;;;;;;;;;;;5093875;28;20378;-74
2024/02/20 04:42:06;;;;;;;;;;;;;;;;;;5093802;28;19958;-75
2024/02/20 04:44:32;;;;;;;;;;;;;;;;;;5093574;28;19951;-75
2024/02/20 04:47:00;;;;;;;;;;;;;;;;;;5093847;28;19908;-75
2024/02/20 04:49:26;;;;;;;;;;;;;;;;;;5093957;28;19909;-74
2024/02/20 04:51:51;;;;;;;;;;;;;;;;;;5093272;28;20329;-74
2024/02/20 04:54:17;;;;;;;;;;;;;;;;;;5093544;28;19912;-74
2024/02/20 04:56:43;;;;;;;;;;;;;;;;;;5092643;28;19931;-74
2024/02/20 04:59:09;;;;;;;;;;;;;;;;;;5093248;28;19969;-75
2024/02/20 05:01:35;;;;;;;;;;;;;;;;;;5093528;28;19915;-75
2024/02/20 05:04:01;;;;;;;;;;;;;;;;;;5093577;28;19908;-75
2024/02/20 05:06:27;;;;;;;;;;;;;;;;;;5093173;28;19950;-75
2024/02/20 05:08:53;;;;;;;;;;;;;;;;;;5093499;28;20287;-74
2024/02/20 05:11:19;;;;;;;;;;;;;;;;;;5093463;28;19977;-74
2024/02/20 05:13:45;;;;;;;;;;;;;;;;;;5091799;28;19927;-74
2024/02/20 05:16:11;;;;;;;;;;;;;;;;;;5093454;28;19908;-74
2024/02/20 05:18:37;;;;;;;;;;;;;;;;;;5093109;28;19931;-75
2024/02/20 05:21:06;;;;;;;;;;;;;;;;;;5093909;28;19916;-75
2024/02/20 05:23:32;;;;;;;;;;;;;;;;;;5097090;28;19908;-75
2024/02/20 05:25:58;;;;;;;;;;;;;;;;;;5097026;28;20428;-75
2024/02/20 05:28:24;;;;;;;;;;;;;;;;;;5095733;28;20280;-74
2024/02/20 05:30:50;;;;;;;;;;;;;;;;;;5096730;28;20291;-75
2024/02/20 05:33:16;;;;;;;;;;;;;;;;;;5096354;28;19908;-75
2024/02/20 05:35:44;;;;;;;;;;;;;;;;;;5096247;28;20265;-75
2024/02/20 05:38:10;;;;;;;;;;;;;;;;;;5096760;28;19908;-75
2024/02/20 05:40:36;;;;;;;;;;;;;;;;;;5096358;28;19908;-75
2024/02/20 05:43:02;;;;;;;;;;;;;;;;;;5097061;28;19915;-75
2024/02/20 05:45:30;;;;;;;;;;;;;;;;;;5096612;28;19915;-75
2024/02/20 05:47:56;;;;;;;;;;;;;;;;;;5096270;28;19918;-74
2024/02/20 05:50:23;;;;;;;;;;;;;;;;;;5096828;28;19911;-74
2024/02/20 05:52:48;;;;;;;;;;;;;;;;;;5096464;28;20372;-74
2024/02/20 05:55:15;;;;;;;;;;;;;;;;;;5096077;28;19916;-74
2024/02/20 05:57:41;;;;;;;;;;;;;;;;;;5096403;28;19968;-75
2024/02/20 06:00:07;;;;;;;;;;;;;;;;;;5096338;28;20007;-75
2024/02/20 06:02:33;;;;;;;;;;;;;;;;;;5095992;28;19908;-74
2024/02/20 06:04:59;;;;;;;;;;;;;;;;;;5096271;28;19995;-74
2024/02/20 06:07:25;;;;;;;;;;;;;;;;;;5096442;28;20398;-74
2024/02/20 06:09:51;;;;;;;;;;;;;;;;;;5095826;28;19912;-74
2024/02/20 06:12:17;;;;;;;;;;;;;;;;;;5103385;28;19915;-72
2024/02/20 06:14:43;;;;;;;;;;;;;;;;;;5109999;28;19966;-73
2024/02/20 06:17:09;;;;;;;;;;;;;;;;;;5094896;28;20006;-75
2024/02/20 06:19:35;;;;;;;;;;;;;;;;;;5094695;28;20292;-72
2024/02/20 06:22:01;;;;;;;;;;;;;;;;;;5095082;28;19989;-72
2024/02/20 06:24:27;;;;;;;;;;;;;;;;;;5096062;28;19954;-70
2024/02/20 06:26:53;;;;;;;;;;;;;;;;;;5115464;28;19915;-72
2024/02/20 06:29:19;;;;;;;;;;;;;;;;;;5111709;28;19908;-68
2024/02/20 06:31:51;;;;;;;;;;;;;;;;;;5086803;28;20360;-69
2024/02/20 06:34:17;;;;;;;;;;;;;;;;;;5080773;28;19928;-70
2024/02/20 06:36:43;;;;;;;;;;;;;;;;;;5089001;28;20306;-69
2024/02/20 06:39:09;;;;;;;;;;;;;;;;;;5084443;28;19908;-70
2024/02/20 06:41:35;;;;;;;;;;;;;;;;;;5074669;28;19914;-69
2024/02/20 06:44:01;;;;;;;;;;;;;;;;;;5096216;28;20006;-69
2024/02/20 06:46:27;;;;;;;;;;;;;;;;;;5082226;28;19912;-67
2024/02/20 06:48:53;;;;;;;;;;;;;;;;;;5094531;28;19991;-70
2024/02/20 06:51:18;;;;;;;;;;;;;;;;;;5073646;28;19999;-68
2024/02/20 06:53:44;;;;;;;;;;;;;;;;;;5098934;28;19970;-68
2024/02/20 06:56:10;;;;;;;;;;;;;;;;;;5086626;28;19916;-69
2024/02/20 06:58:36;;;;;;;;;;;;;;;;;;5095337;28;19920;-69
2024/02/20 07:01:02;;;;;;;;;;;;;;;;;;5110676;28;20385;-70
2024/02/20 07:03:28;;;;;;;;;;;;;;;;;;5110314;28;19912;-69
2024/02/20 07:05:54;;;;;;;;;;;;;;;;;;5093788;28;19938;-70
2024/02/20 07:08:20;;;;;;;;;;;;;;;;;;5093734;28;20326;-68
2024/02/20 07:10:46;;;;;;;;;;;;;;;;;;5093530;28;20347;-70
2024/02/20 07:13:12;;;;;;;;;;;;;;;;;;5089758;28;19916;-69
2024/02/20 07:15:38;;;;;;;;;;;;;;;;;;5106631;28;19924;-68
2024/02/20 07:18:04;;;;;;;;;;;;;;;;;;5112037;28;19919;-68
2024/02/20 07:20:31;;;;;;;;;;;;;;;;;;5096792;28;19919;-67
2024/02/20 07:22:57;;;;;;;;;;;;;;;;;;5099609;28;20260;-71
2024/02/20 07:25:25;;;;;;;;;;;;;;;;;;5085391;28;19912;-70
2024/02/20 07:27:51;;;;;;;;;;;;;;;;;;5113201;28;19912;-70
2024/02/20 07:30:17;;;;;;;;;;;;;;;;;;5093950;28;19916;-69
2024/02/20 07:32:43;;;;;;;;;;;;;;;;;;5096438;28;20395;-68
2024/02/20 07:35:12;;;;;;;;;;;;;;;;;;5089722;28;19959;-69
2024/02/20 07:37:38;;;;;;;;;;;;;;;;;;5108093;28;19911;-69
2024/02/20 07:40:04;;;;;;;;;;;;;;;;;;5082126;28;19961;-67
2024/02/20 07:42:31;;;;;;;;;;;;;;;;;;5098362;28;20475;-66
2024/02/20 07:44:59;;;;;;;;;;;;;;;;;;5089644;28;19912;-66
2024/02/20 07:47:26;;;;;;;;;;;;;;;;;;5089282;28;19912;-68
2024/02/20 07:49:51;;;;;;;;;;;;;;;;;;5104899;28;19949;-68
2024/02/20 07:52:17;;;;;;;;;;;;;;;;;;5096949;28;19912;-67
2024/02/20 07:54:43;;;;;;;;;;;;;;;;;;5087863;28;19924;-66
2024/02/20 07:57:10;;;;;;;;;;;;;;;;;;5095267;28;19912;-68
2024/02/20 07:59:36;;;;;;;;;;;;;;;;;;5090110;28;19920;-70
2024/02/20 08:02:07;;;;;;;;;;;;;;;;;;5095079;28;19912;-70
2024/02/20 08:04:33;;;;;;;;;;;;;;;;;;5099735;28;19916;-70
2024/02/20 08:06:59;;;;;;;;;;;;;;;;;;5090271;28;19908;-70
2024/02/20 08:09:25;;;;;;;;;;;;;;;;;;5090138;28;19912;-70
2024/02/20 08:11:51;;;;;;;;;;;;;;;;;;5087235;28;19923;-70
2024/02/20 08:14:19;;;;;;;;;;;;;;;;;;5088862;28;19924;-70
2024/02/20 08:16:45;;;;;;;;;;;;;;;;;;5092927;28;19926;-71
2024/02/20 08:19:11;;;;;;;;;;;;;;;;;;5093775;28;19922;-72
2024/02/20 08:21:37;;;;;;;;;;;;;;;;;;5071916;28;20414;-72
2024/02/20 08:24:03;;;;;;;;;;;;;;;;;;5090977;28;19916;-72
2024/02/20 08:26:29;;;;;;;;;;;;;;;;;;5108205;28;19953;-69
2024/02/20 08:28:55;;;;;;;;;;;;;;;;;;5079717;28;20318;-69
2024/02/20 08:31:21;;;;;;;;;;;;;;;;;;5090640;28;19923;-69
2024/02/20 08:33:47;;;;;;;;;;;;;;;;;;5098783;28;19932;-70
2024/02/20 08:36:13;;;;;;;;;;;;;;;;;;5087621;28;19909;-69
2024/02/20 08:38:39;;;;;;;;;;;;;;;;;;5087725;28;19985;-69
2024/02/20 08:41:05;;;;;;;;;;;;;;;;;;5087133;28;19919;-69
2024/02/20 08:43:31;;;;;;;;;;;;;;;;;;5108302;28;19908;-69
2024/02/20 08:45:57;;;;;;;;;;;;;;;;;;5079124;28;19917;-69
2024/02/20 08:48:23;;;;;;;;;;;;;;;;;;5067390;28;20434;-69
2024/02/20 08:50:49;;;;;;;;;;;;;;;;;;5106934;28;20465;-69
2024/02/20 08:53:15;;;;;;;;;;;;;;;;;;5090064;28;20404;-69
2024/02/20 08:55:41;;;;;;;;;;;;;;;;;;5086593;28;19981;-69
2024/02/20 08:58:07;;;;;;;;;;;;;;;;;;5090684;28;20359;-71
2024/02/20 09:00:33;;;;;;;;;;;;;;;;;;5091393;28;19970;-69
2024/02/20 09:02:59;;;;;;;;;;;;;;;;;;5092030;28;20504;-68
2024/02/20 09:05:25;;;;;;;;;;;;;;;;;;5085380;28;20015;-69
2024/02/20 09:07:51;;;;;;;;;;;;;;;;;;5078503;28;20003;-70
2024/02/20 09:10:17;;;;;;;;;;;;;;;;;;5091539;28;20007;-69
2024/02/20 09:12:43;;;;;;;;;;;;;;;;;;5087038;28;19961;-69
2024/02/20 09:15:09;;;;;;;;;;;;;;;;;;5097475;28;19920;-70
2024/02/20 09:17:35;;;;;;;;;;;;;;;;;;5108774;28;20433;-69
2024/02/20 09:20:01;;;;;;;;;;;;;;;;;;5096739;28;19983;-70
2024/02/20 09:22:27;;;;;;;;;;;;;;;;;;5094863;28;19912;-70
2024/02/20 09:24:53;;;;;;;;;;;;;;;;;;5096960;28;19908;-70
2024/02/20 09:27:19;;;;;;;;;;;;;;;;;;5102627;28;19916;-70
2024/02/20 09:29:45;;;;;;;;;;;;;;;;;;5101551;28;19919;-70
2024/02/20 09:32:11;;;;;;;;;;;;;;;;;;5106568;28;19958;-69
2024/02/20 09:34:37;;;;;;;;;;;;;;;;;;5095405;28;19973;-70
2024/02/20 09:37:03;;;;;;;;;;;;;;;;;;5099643;28;20309;-68
2024/02/20 09:39:28;;;;;;;;;;;;;;;;;;5099485;28;19916;-71
2024/02/20 09:41:54;;;;;;;;;;;;;;;;;;5094841;28;20562;-71
2024/02/20 09:44:21;;;;;;;;;;;;;;;;;;5089954;28;19955;-70
2024/02/20 09:46:46;;;;;;;;;;;;;;;;;;5097518;28;20325;-70
2024/02/20 09:49:13;;;;;;;;;;;;;;;;;;5107607;28;19912;-68
2024/02/20 09:51:39;;;;;;;;;;;;;;;;;;5089045;28;19916;-69
2024/02/20 09:54:05;;;;;;;;;;;;;;;;;;5093024;28;19923;-69
2024/02/20 09:56:33;;;;;;;;;;;;;;;;;;5106047;28;20341;-68
2024/02/20 10:00:45;;;;;;;;;;;;;;;;;;5107674;27;19920;-69
2024/02/20 10:03:11;;;;;;;;;;;;;;;;;;5108640;28;19912;-69
2024/02/20 10:05:37;;;;;;;;;;;;;;;;;;5103722;28;19909;-69
2024/02/20 10:08:03;;;;;;;;;;;;;;;;;;5084956;28;19954;-71
2024/02/20 10:10:29;;;;;;;;;;;;;;;;;;5086216;28;19909;-70
2024/02/20 10:15:22;;;;;;;;;;;;;;;;;;5087841;27;19921;-69
2024/02/20 10:17:48;;;;;;;;;;;;;;;;;;5089114;28;19918;-70
2024/02/20 10:20:15;;;;;;;;;;;;;;;;;;5088350;28;19916;-69
2024/02/20 10:22:41;;;;;;;;;;;;;;;;;;5084573;28;19913;-69
2024/02/20 10:25:12;;;;;;;;;;;;;;;;;;5085665;28;19931;-69
2024/02/20 10:27:38;;;;;;;;;;;;;;;;;;5086161;28;20653;-69
2024/02/20 10:30:04;;;;;;;;;;;;;;;;;;5084562;28;19908;-69
2024/02/20 10:32:34;;;;;;;;;;;;;;;;;;5085451;28;20371;-72
2024/02/20 10:34:59;;;;;;;;;;;;;;;;;;5084055;28;20037;-70
2024/02/20 10:37:52;;;;;;;;;;;;;;;;;;5085054;27;19916;-69
2024/02/20 10:40:18;;;;;;;;;;;;;;;;;;5081019;28;19935;-70
2024/02/20 10:43:40;;;;;;;;;;;;;;;;;;5088125;27;19916;-72
2024/02/20 10:46:53;;;;;;;;;;;;;;;;;;5118780;27;19922;-68
2024/02/20 10:52:05;;;;;;;;;;;;;;;;;;5105876;27;19927;-72
2024/02/20 10:55:38;;;;;;;;;;;;;;;;;;5075272;27;2607839;-71
2024/02/20 11:00:11;;;;;;;;;;;;;;;;;;5074547;27;2326191;-73
2024/02/20 11:02:37;;;;;;;;;;;;;;;;;;5140345;27;19911;-69
2024/02/20 11:05:03;;;;;;;;;;;;;;;;;;5143530;27;19912;-70
2024/02/20 11:07:29;;;;;;;;;;;;;;;;;;5117916;27;19918;-70
2024/02/20 11:11:51;;;;;;;;;;;;;;;;;;5095484;28;19919;-69
2024/02/20 11:14:17;;;;;;;;;;;;;;;;;;5085824;28;19916;-69
2024/02/20 11:16:44;;;;;;;;;;;;;;;;;;5085319;28;19916;-69
2024/02/20 11:22:32;;;;;;;;;;;;;;;;;;5059775;27;2697701;-68
2024/02/20 11:27:11;;;;;;;;;;;;;;;;;;5075528;27;19948;-68
2024/02/20 11:29:37;;;;;;;;;;;;;;;;;;5044619;28;19967;-68
2024/02/20 11:33:50;;;;;;;;;;;;;;;;;;5103543;27;19927;-66
2024/02/20 11:36:38;;;;;;;;;;;;;;;;;;5075401;27;19950;-66
2024/02/20 11:40:40;;;;;;;;;;;;;;;;;;5075900;28;19921;-67
2024/02/20 11:43:06;;;;;;;;;;;;;;;;;;5078082;28;20118;-67
2024/02/20 11:46:33;;;;;;;;;;;;;;;;;;5132158;27;19925;-67
2024/02/20 11:48:59;;;;;;;;;;;;;;;;;;5125852;28;20006;-68
2024/02/20 11:51:25;;;;;;;;;;;;;;;;;;5127083;28;20386;-67
2024/02/20 11:53:54;;;;;;;;;;;;;;;;;;5092824;28;19948;-71
2024/02/20 11:58:40;;;;;;;;;;;;;;;;;;5122152;27;19919;-71
2024/02/20 12:01:06;;;;;;;;;;;;;;;;;;5117673;28;20292;-71
2024/02/20 12:03:32;;;;;;;;;;;;;;;;;;5114247;27;19908;-71
2024/02/20 12:09:04;;;;;;;;;;;;;;;;;;5089358;27;19926;-70
2024/02/20 12:11:30;;;;;;;;;;;;;;;;;;5088446;28;20008;-70
2024/02/20 12:16:36;;;;;;;;;;;;;;;;;;5087750;27;19919;-70
2024/02/20 12:19:03;;;;;;;;;;;;;;;;;;5087936;28;20257;-69
2024/02/20 12:21:31;;;;;;;;;;;;;;;;;;5087668;28;20363;-71
2024/02/20 12:23:57;;;;;;;;;;;;;;;;;;5077328;28;19917;-71
2024/02/20 12:26:23;;;;;;;;;;;;;;;;;;5081875;28;19912;-70
2024/02/20 12:31:08;;;;;;;;;;;;;;;;;;4742076;27;12015659;-71
2024/02/20 12:33:34;;;;;;;;;;;;;;;;;;5165077;27;19954;-71
2024/02/20 12:36:11;;;;;;;;;;;;;;;;;;5083772;27;19916;-69
2024/02/20 12:38:37;;;;;;;;;;;;;;;;;;5071066;28;20513;-71
2024/02/20 12:43:26;;;;;;;;;;;;;;;;;;5085690;27;19923;-70
2024/02/20 12:45:52;;;;;;;;;;;;;;;;;;5084597;28;19912;-70
2024/02/20 12:48:19;;;;;;;;;;;;;;;;;;5083935;28;19909;-69
2024/02/20 12:51:29;;;;;;;;;;;;;;;;;;5082831;27;19916;-70
2024/02/20 12:53:55;;;;;;;;;;;;;;;;;;5085073;28;19913;-70
2024/02/20 12:59:02;;;;;;;;;;;;;;;;;;5086312;28;20269;-69
2024/02/20 13:01:28;;;;;;;;;;;;;;;;;;5089947;28;19919;-69
2024/02/20 13:03:54;;;;;;;;;;;;;;;;;;5088544;28;20395;-71
2024/02/20 13:06:20;;;;;;;;;;;;;;;;;;5087933;28;19912;-71
2024/02/20 13:12:08;;;;;;;;;;;;;;;;;;5107693;27;19920;-69
2024/02/20 13:14:34;;;;;;;;;;;;;;;;;;5097587;28;19920;-70
2024/02/20 13:17:00;;;;;;;;;;;;;;;;;;5089703;28;20284;-69
2024/02/20 13:19:27;;;;;;;;;;;;;;;;;;5090312;28;19909;-70
2024/02/20 13:21:54;;;;;;;;;;;;;;;;;;5090009;28;19913;-70
2024/02/20 13:24:54;;;;;;;;;;;;;;;;;;5145646;27;19915;-70
2024/02/20 13:27:20;;;;;;;;;;;;;;;;;;5131031;28;19990;-71
2024/02/20 13:29:46;;;;;;;;;;;;;;;;;;5130086;28;20003;-67
2024/02/20 13:32:15;;;;;;;;;;;;;;;;;;5130497;28;19968;-70
2024/02/20 13:34:41;;;;;;;;;;;;;;;;;;5131237;28;19994;-70
2024/02/20 13:37:07;;;;;;;;;;;;;;;;;;5130393;28;19908;-70
2024/02/20 13:39:34;;;;;;;;;;;;;;;;;;5127118;28;20363;-70
2024/02/20 13:42:00;;;;;;;;;;;;;;;;;;5090848;28;19916;-70
2024/02/20 13:44:26;;;;;;;;;;;;;;;;;;5108706;28;19916;-70
2024/02/20 13:46:52;;;;;;;;;;;;;;;;;;5124171;28;19931;-69
2024/02/20 13:51:32;;;;;;;;;;;;;;;;;;5087134;27;19939;-71
2024/02/20 13:53:57;;;;;;;;;;;;;;;;;;5088610;28;20453;-72
2024/02/20 13:57:54;;;;;;;;;;;;;;;;;;5044482;27;2400476;-71
2024/02/20 14:05:37;;;;;;;;;;;;;;;;;;5079166;28;19923;-71
2024/02/20 14:08:03;;;;;;;;;;;;;;;;;;5078556;28;19919;-71
2024/02/20 14:10:29;;;;;;;;;;;;;;;;;;5084421;28;19908;-71
2024/02/20 14:12:57;;;;;;;;;;;;;;;;;;5088592;28;19938;-72
2024/02/20 14:15:23;;;;;;;;;;;;;;;;;;5086983;28;19909;-72
2024/02/20 14:17:50;;;;;;;;;;;;;;;;;;5071170;28;20372;-71
2024/02/20 14:20:16;;;;;;;;;;;;;;;;;;5066119;28;20381;-71
2024/02/20 14:22:42;;;;;;;;;;;;;;;;;;5068858;28;19944;-72
2024/02/20 14:25:08;;;;;;;;;;;;;;;;;;5069042;28;20288;-72
2024/02/20 14:29:17;;;;;;;;;;;;;;;;;;5090738;27;19916;-72
2024/02/20 14:31:43;;;;;;;;;;;;;;;;;;5091354;28;19957;-73
2024/02/20 14:36:27;;;;;;;;;;;;;;;;;;5050655;28;19923;-73
2024/02/20 14:38:53;;;;;;;;;;;;;;;;;;5051112;28;19913;-72
2024/02/20 14:41:19;;;;;;;;;;;;;;;;;;5050682;28;19916;-73
2024/02/20 14:43:45;;;;;;;;;;;;;;;;;;5042893;28;19916;-71
2024/02/20 14:46:11;;;;;;;;;;;;;;;;;;5048723;28;19913;-71
2024/02/20 14:48:37;;;;;;;;;;;;;;;;;;5050368;28;19913;-71
2024/02/20 14:51:03;;;;;;;;;;;;;;;;;;5050620;28;19909;-70
2024/02/20 14:53:29;;;;;;;;;;;;;;;;;;5049904;28;20357;-71
2024/02/20 14:55:55;;;;;;;;;;;;;;;;;;5049572;28;20285;-71
2024/02/20 14:58:22;;;;;;;;;;;;;;;;;;5050724;28;19909;-71
2024/02/20 15:00:48;;;;;;;;;;;;;;;;;;5050038;28;19912;-71
2024/02/20 15:05:49;;;;;;;;;;;;;;;;;;5091087;28;20303;-73
2024/02/20 15:08:16;;;;;;;;;;;;;;;;;;5091070;28;20011;-72
2024/02/20 15:13:32;;;;;;;;;;;;;;;;;;5111860;27;19916;-71
2024/02/20 15:15:58;;;;;;;;;;;;;;;;;;5109959;28;20019;-72
2024/02/20 15:18:27;;;;;;;;;;;;;;;;;;5110658;28;19915;-70
2024/02/20 15:21:58;;;;;;;;;;;;;;;;;;5090748;27;19923;-70
2024/02/20 15:24:44;;;;;;;;;;;;;;;;;;5091154;28;20372;-71
2024/02/20 15:27:10;;;;;;;;;;;;;;;;;;5091252;28;19995;-71
2024/02/20 15:29:36;;;;;;;;;;;;;;;;;;5091441;28;20003;-72
2024/02/20 15:32:02;;;;;;;;;;;;;;;;;;5090849;28;19954;-72
2024/02/20 15:34:27;;;;;;;;;;;;;;;;;;5089776;28;20288;-72
2024/02/20 15:38:19;;;;;;;;;;;;;;;;;;5091462;27;19922;-72
2024/02/20 15:40:45;;;;;;;;;;;;;;;;;;5090109;28;20292;-72
2024/02/20 15:43:16;;;;;;;;;;;;;;;;;;5091320;28;19915;-72
2024/02/20 15:49:59;;;;;;;;;;;;;;;;;;5091862;27;19916;-71
2024/02/20 15:52:27;;;;;;;;;;;;;;;;;;5090824;28;20340;-72
2024/02/20 15:54:53;;;;;;;;;;;;;;;;;;5090718;28;20390;-72
2024/02/20 15:57:19;;;;;;;;;;;;;;;;;;5091118;28;19916;-72
2024/02/20 16:01:24;;;;;;;;;;;;;;;;;;5091472;27;19916;-72
2024/02/20 16:03:50;;;;;;;;;;;;;;;;;;5091241;28;19956;-72
2024/02/20 16:06:16;;;;;;;;;;;;;;;;;;5090734;28;20283;-71
2024/02/20 16:08:42;;;;;;;;;;;;;;;;;;5091181;28;19912;-71
2024/02/20 16:11:08;;;;;;;;;;;;;;;;;;5091176;28;20437;-72
2024/02/20 16:13:34;;;;;;;;;;;;;;;;;;5090858;28;20415;-72
2024/02/20 16:16:00;;;;;;;;;;;;;;;;;;5091033;28;19908;-71
2024/02/20 16:18:26;;;;;;;;;;;;;;;;;;5091409;28;20379;-71
2024/02/20 16:20:52;;;;;;;;;;;;;;;;;;5089074;28;19917;-71
2024/02/20 16:23:18;;;;;;;;;;;;;;;;;;5091182;28;19916;-72
2024/02/20 16:25:44;;;;;;;;;;;;;;;;;;5090878;28;19914;-71
2024/02/20 16:28:10;;;;;;;;;;;;;;;;;;5090371;28;19958;-71
2024/02/20 16:30:36;;;;;;;;;;;;;;;;;;5090874;28;19916;-71
2024/02/20 16:33:03;;;;;;;;;;;;;;;;;;5089421;28;19955;-73
2024/02/20 16:35:32;;;;;;;;;;;;;;;;;;5089173;28;19908;-73
2024/02/20 16:37:59;;;;;;;;;;;;;;;;;;5090724;28;19908;-72
2024/02/20 16:40:24;;;;;;;;;;;;;;;;;;5090490;28;20378;-72
2024/02/20 16:42:50;;;;;;;;;;;;;;;;;;5090149;28;19918;-71
2024/02/20 16:45:16;;;;;;;;;;;;;;;;;;5089554;28;20412;-72
2024/02/20 16:47:42;;;;;;;;;;;;;;;;;;5090969;28;20356;-71
2024/02/20 16:50:08;;;;;;;;;;;;;;;;;;5089865;28;19908;-72
2024/02/20 16:52:35;;;;;;;;;;;;;;;;;;5090372;28;19909;-72
2024/02/20 16:55:01;;;;;;;;;;;;;;;;;;5090024;28;19953;-72
2024/02/20 16:57:26;;;;;;;;;;;;;;;;;;5090244;28;19912;-71
2024/02/20 16:59:52;;;;;;;;;;;;;;;;;;5090298;28;19932;-72
2024/02/20 17:02:18;;;;;;;;;;;;;;;;;;5089814;28;19908;-72
2024/02/20 17:04:44;;;;;;;;;;;;;;;;;;5090156;28;19915;-72
2024/02/20 17:07:10;;;;;;;;;;;;;;;;;;5090111;28;19919;-72
2024/02/20 17:09:36;;;;;;;;;;;;;;;;;;5089736;28;19909;-72
2024/02/20 17:12:02;;;;;;;;;;;;;;;;;;5080316;28;20307;-72
2024/02/20 17:14:29;;;;;;;;;;;;;;;;;;5076506;28;19931;-72
2024/02/20 17:16:55;;;;;;;;;;;;;;;;;;5074667;28;19978;-72
2024/02/20 17:19:21;;;;;;;;;;;;;;;;;;5076287;28;20360;-72
2024/02/20 17:21:47;;;;;;;;;;;;;;;;;;5076338;28;19912;-71
2024/02/20 17:24:13;;;;;;;;;;;;;;;;;;5075854;28;19966;-71
2024/02/20 17:26:39;;;;;;;;;;;;;;;;;;5076205;28;19944;-72
2024/02/20 17:29:05;;;;;;;;;;;;;;;;;;5076235;28;20453;-72
2024/02/20 17:31:31;;;;;;;;;;;;;;;;;;5074474;28;19908;-72
2024/02/20 17:33:57;;;;;;;;;;;;;;;;;;5076448;28;20280;-72
2024/02/20 17:36:23;;;;;;;;;;;;;;;;;;5076518;28;19952;-72
2024/02/20 17:38:52;;;;;;;;;;;;;;;;;;5075639;28;19915;-72
2024/02/20 17:41:18;;;;;;;;;;;;;;;;;;5074729;28;19916;-71
2024/02/20 17:43:44;;;;;;;;;;;;;;;;;;5074695;28;19969;-71
2024/02/20 17:46:10;;;;;;;;;;;;;;;;;;5075457;28;19916;-71
2024/02/20 17:48:36;;;;;;;;;;;;;;;;;;5074566;28;20018;-72